sensor_id;sensor_type;location;lat;lon;timestamp;P1;durP1;ratioP1;P2;durP2;ratioP2
3343;SDS011;1685;53.104;8.228;2022-07-09T00:01:30;8.53;;;3.73;;
3343;SDS011;1685;53.104;8.228;2022-07-09T00:03:57;6.00;;;4.00;;
3343;SDS011;1685;53.104;8.228;2022-07-09T00:06:23;11.93;;;4.57;;
3343;SDS011;1685;53.104;8.228;2022-07-09T00:08:50;8.40;;;3.77;;
3343;SDS011;1685;53.104;8.228;2022-07-09T00:11:17;8.07;;;4.30;;
3343;SDS011;1685;53.104;8.228;2022-07-09T00:13:45;6.80;;;4.80;;
3343;SDS011;1685;53.104;8.228;2022-07-09T00:16:12;10.63;;;5.37;;
3343;SDS011;1685;53.104;8.228;2022-07-09T00:18:38;6.53;;;4.47;;
3343;SDS011;1685;53.104;8.228;2022-07-09T00:21:05;7.03;;;4.10;;
3343;SDS011;1685;53.104;8.228;2022-07-09T00:23:32;9.03;;;4.10;;
3343;SDS011;1685;53.104;8.228;2022-07-09T00:25:59;9.30;;;5.00;;
3343;SDS011;1685;53.104;8.228;2022-07-09T00:28:26;11.17;;;4.53;;
3343;SDS011;1685;53.104;8.228;2022-07-09T00:30:54;11.07;;;4.97;;
3343;SDS011;1685;53.104;8.228;2022-07-09T00:33:21;6.80;;;4.03;;
3343;SDS011;1685;53.104;8.228;2022-07-09T00:35:48;12.23;;;5.33;;
3343;SDS011;1685;53.104;8.228;2022-07-09T00:38:15;9.43;;;4.33;;
3343;SDS011;1685;53.104;8.228;2022-07-09T00:40:42;8.77;;;4.40;;
3343;SDS011;1685;53.104;8.228;2022-07-09T00:43:15;9.60;;;4.63;;
3343;SDS011;1685;53.104;8.228;2022-07-09T00:45:43;5.30;;;3.93;;
3343;SDS011;1685;53.104;8.228;2022-07-09T00:48:11;10.80;;;4.30;;
3343;SDS011;1685;53.104;8.228;2022-07-09T00:50:38;6.10;;;4.80;;
3343;SDS011;1685;53.104;8.228;2022-07-09T00:53:07;7.87;;;5.90;;
3343;SDS011;1685;53.104;8.228;2022-07-09T00:55:35;8.97;;;4.60;;
3343;SDS011;1685;53.104;8.228;2022-07-09T00:58:02;13.80;;;5.10;;
3343;SDS011;1685;53.104;8.228;2022-07-09T01:00:29;14.47;;;5.70;;
3343;SDS011;1685;53.104;8.228;2022-07-09T01:02:56;8.10;;;5.30;;
3343;SDS011;1685;53.104;8.228;2022-07-09T01:05:24;6.57;;;4.77;;
3343;SDS011;1685;53.104;8.228;2022-07-09T01:07:51;6.33;;;5.23;;
3343;SDS011;1685;53.104;8.228;2022-07-09T01:10:19;8.93;;;4.80;;
3343;SDS011;1685;53.104;8.228;2022-07-09T01:12:46;9.93;;;5.17;;
3343;SDS011;1685;53.104;8.228;2022-07-09T01:15:13;12.40;;;6.27;;
3343;SDS011;1685;53.104;8.228;2022-07-09T01:17:40;10.07;;;5.50;;
3343;SDS011;1685;53.104;8.228;2022-07-09T01:20:08;7.53;;;5.10;;
3343;SDS011;1685;53.104;8.228;2022-07-09T01:22:36;9.50;;;6.03;;
3343;SDS011;1685;53.104;8.228;2022-07-09T01:25:04;7.07;;;5.50;;
3343;SDS011;1685;53.104;8.228;2022-07-09T01:27:34;7.47;;;5.40;;
3343;SDS011;1685;53.104;8.228;2022-07-09T01:30:01;9.00;;;5.70;;
3343;SDS011;1685;53.104;8.228;2022-07-09T01:32:28;8.60;;;5.83;;
3343;SDS011;1685;53.104;8.228;2022-07-09T01:34:55;9.37;;;5.90;;
3343;SDS011;1685;53.104;8.228;2022-07-09T01:37:22;11.00;;;6.67;;
3343;SDS011;1685;53.104;8.228;2022-07-09T01:39:50;9.57;;;6.30;;
3343;SDS011;1685;53.104;8.228;2022-07-09T01:42:16;9.40;;;6.20;;
3343;SDS011;1685;53.104;8.228;2022-07-09T01:44:43;8.80;;;6.40;;
3343;SDS011;1685;53.104;8.228;2022-07-09T01:47:10;10.17;;;6.60;;
3343;SDS011;1685;53.104;8.228;2022-07-09T01:49:39;9.00;;;6.17;;
3343;SDS011;1685;53.104;8.228;2022-07-09T01:52:07;10.77;;;6.90;;
3343;SDS011;1685;53.104;8.228;2022-07-09T01:54:34;10.17;;;6.93;;
3343;SDS011;1685;53.104;8.228;2022-07-09T01:57:02;15.10;;;7.67;;
3343;SDS011;1685;53.104;8.228;2022-07-09T01:59:29;12.63;;;7.30;;
3343;SDS011;1685;53.104;8.228;2022-07-09T02:01:56;10.03;;;8.10;;
3343;SDS011;1685;53.104;8.228;2022-07-09T02:04:23;18.17;;;8.63;;
3343;SDS011;1685;53.104;8.228;2022-07-09T02:06:50;17.53;;;9.10;;
3343;SDS011;1685;53.104;8.228;2022-07-09T02:09:17;15.60;;;10.30;;
3343;SDS011;1685;53.104;8.228;2022-07-09T02:11:44;9.80;;;8.07;;
3343;SDS011;1685;53.104;8.228;2022-07-09T02:14:13;10.60;;;8.73;;
3343;SDS011;1685;53.104;8.228;2022-07-09T02:16:40;14.13;;;9.50;;
3343;SDS011;1685;53.104;8.228;2022-07-09T02:19:07;20.17;;;10.33;;
3343;SDS011;1685;53.104;8.228;2022-07-09T02:21:33;18.43;;;10.87;;
3343;SDS011;1685;53.104;8.228;2022-07-09T02:24:00;26.67;;;12.53;;
3343;SDS011;1685;53.104;8.228;2022-07-09T02:26:27;14.83;;;12.03;;
3343;SDS011;1685;53.104;8.228;2022-07-09T02:28:55;18.13;;;12.00;;
3343;SDS011;1685;53.104;8.228;2022-07-09T02:31:23;16.97;;;11.43;;
3343;SDS011;1685;53.104;8.228;2022-07-09T02:33:51;27.37;;;13.10;;
3343;SDS011;1685;53.104;8.228;2022-07-09T02:36:18;16.67;;;12.47;;
3343;SDS011;1685;53.104;8.228;2022-07-09T02:38:45;19.13;;;12.10;;
3343;SDS011;1685;53.104;8.228;2022-07-09T02:41:12;24.00;;;13.80;;
3343;SDS011;1685;53.104;8.228;2022-07-09T02:43:39;24.87;;;14.50;;
3343;SDS011;1685;53.104;8.228;2022-07-09T02:46:07;22.27;;;14.43;;
3343;SDS011;1685;53.104;8.228;2022-07-09T02:48:35;20.00;;;14.20;;
3343;SDS011;1685;53.104;8.228;2022-07-09T02:51:02;21.33;;;12.30;;
3343;SDS011;1685;53.104;8.228;2022-07-09T02:53:29;19.53;;;14.03;;
3343;SDS011;1685;53.104;8.228;2022-07-09T02:55:56;19.57;;;14.30;;
3343;SDS011;1685;53.104;8.228;2022-07-09T02:58:23;21.97;;;13.80;;
3343;SDS011;1685;53.104;8.228;2022-07-09T03:00:50;23.50;;;15.40;;
3343;SDS011;1685;53.104;8.228;2022-07-09T03:03:17;21.20;;;13.43;;
3343;SDS011;1685;53.104;8.228;2022-07-09T03:05:45;23.40;;;13.40;;
3343;SDS011;1685;53.104;8.228;2022-07-09T03:08:12;18.40;;;12.97;;
3343;SDS011;1685;53.104;8.228;2022-07-09T03:10:39;26.83;;;13.80;;
3343;SDS011;1685;53.104;8.228;2022-07-09T03:13:06;18.33;;;13.80;;
3343;SDS011;1685;53.104;8.228;2022-07-09T03:15:33;21.43;;;13.40;;
3343;SDS011;1685;53.104;8.228;2022-07-09T03:17:59;22.77;;;14.80;;
3343;SDS011;1685;53.104;8.228;2022-07-09T03:20:26;20.40;;;15.07;;
3343;SDS011;1685;53.104;8.228;2022-07-09T03:22:54;26.83;;;15.97;;
3343;SDS011;1685;53.104;8.228;2022-07-09T03:25:21;24.33;;;13.83;;
3343;SDS011;1685;53.104;8.228;2022-07-09T03:27:48;24.83;;;15.67;;
3343;SDS011;1685;53.104;8.228;2022-07-09T03:30:15;25.27;;;13.50;;
3343;SDS011;1685;53.104;8.228;2022-07-09T03:32:42;31.50;;;14.20;;
3343;SDS011;1685;53.104;8.228;2022-07-09T03:35:09;21.27;;;15.77;;
3343;SDS011;1685;53.104;8.228;2022-07-09T03:37:36;23.97;;;14.10;;
3343;SDS011;1685;53.104;8.228;2022-07-09T03:40:05;20.23;;;14.80;;
3343;SDS011;1685;53.104;8.228;2022-07-09T03:42:32;22.03;;;14.70;;
3343;SDS011;1685;53.104;8.228;2022-07-09T03:44:59;22.27;;;15.50;;
3343;SDS011;1685;53.104;8.228;2022-07-09T03:47:26;21.73;;;14.10;;
3343;SDS011;1685;53.104;8.228;2022-07-09T03:49:53;23.00;;;14.50;;
3343;SDS011;1685;53.104;8.228;2022-07-09T03:52:20;22.43;;;14.47;;
3343;SDS011;1685;53.104;8.228;2022-07-09T03:54:46;24.53;;;15.10;;
3343;SDS011;1685;53.104;8.228;2022-07-09T03:57:15;25.70;;;15.07;;
3343;SDS011;1685;53.104;8.228;2022-07-09T03:59:42;22.43;;;13.90;;
3343;SDS011;1685;53.104;8.228;2022-07-09T04:02:09;21.80;;;14.00;;
3343;SDS011;1685;53.104;8.228;2022-07-09T04:04:36;26.90;;;15.20;;
3343;SDS011;1685;53.104;8.228;2022-07-09T04:07:03;20.00;;;14.00;;
3343;SDS011;1685;53.104;8.228;2022-07-09T04:09:30;26.03;;;15.50;;
3343;SDS011;1685;53.104;8.228;2022-07-09T04:11:57;21.50;;;15.00;;
3343;SDS011;1685;53.104;8.228;2022-07-09T04:14:25;27.43;;;15.03;;
3343;SDS011;1685;53.104;8.228;2022-07-09T04:16:51;20.63;;;13.77;;
3343;SDS011;1685;53.104;8.228;2022-07-09T04:19:18;27.20;;;13.50;;
3343;SDS011;1685;53.104;8.228;2022-07-09T04:21:45;25.20;;;12.87;;
3343;SDS011;1685;53.104;8.228;2022-07-09T04:24:12;17.17;;;13.73;;
3343;SDS011;1685;53.104;8.228;2022-07-09T04:26:40;21.83;;;12.83;;
3343;SDS011;1685;53.104;8.228;2022-07-09T04:29:07;23.17;;;12.73;;
3343;SDS011;1685;53.104;8.228;2022-07-09T04:31:36;24.17;;;14.30;;
3343;SDS011;1685;53.104;8.228;2022-07-09T04:34:03;17.43;;;12.70;;
3343;SDS011;1685;53.104;8.228;2022-07-09T04:36:30;24.17;;;13.00;;
3343;SDS011;1685;53.104;8.228;2022-07-09T04:38:57;24.80;;;13.40;;
3343;SDS011;1685;53.104;8.228;2022-07-09T04:41:23;22.97;;;12.53;;
3343;SDS011;1685;53.104;8.228;2022-07-09T04:43:50;21.13;;;12.20;;
3343;SDS011;1685;53.104;8.228;2022-07-09T04:46:18;21.40;;;12.63;;
3343;SDS011;1685;53.104;8.228;2022-07-09T04:48:47;25.13;;;12.00;;
3343;SDS011;1685;53.104;8.228;2022-07-09T04:51:14;23.13;;;13.07;;
3343;SDS011;1685;53.104;8.228;2022-07-09T04:53:41;21.37;;;13.13;;
3343;SDS011;1685;53.104;8.228;2022-07-09T04:56:08;17.43;;;11.73;;
3343;SDS011;1685;53.104;8.228;2022-07-09T04:58:35;20.97;;;12.60;;
3343;SDS011;1685;53.104;8.228;2022-07-09T05:01:02;28.57;;;13.23;;
3343;SDS011;1685;53.104;8.228;2022-07-09T05:03:29;20.97;;;12.90;;
3343;SDS011;1685;53.104;8.228;2022-07-09T05:05:58;25.93;;;14.07;;
3343;SDS011;1685;53.104;8.228;2022-07-09T05:08:25;19.73;;;14.07;;
3343;SDS011;1685;53.104;8.228;2022-07-09T05:10:52;26.90;;;14.77;;
3343;SDS011;1685;53.104;8.228;2022-07-09T05:13:19;29.73;;;14.87;;
3343;SDS011;1685;53.104;8.228;2022-07-09T05:15:46;21.57;;;14.20;;
3343;SDS011;1685;53.104;8.228;2022-07-09T05:18:13;30.67;;;15.63;;
3343;SDS011;1685;53.104;8.228;2022-07-09T05:20:40;22.37;;;15.17;;
3343;SDS011;1685;53.104;8.228;2022-07-09T05:23:09;27.70;;;14.73;;
3343;SDS011;1685;53.104;8.228;2022-07-09T05:25:36;29.43;;;15.70;;
3343;SDS011;1685;53.104;8.228;2022-07-09T05:28:03;32.87;;;15.20;;
3343;SDS011;1685;53.104;8.228;2022-07-09T05:30:30;35.70;;;15.50;;
3343;SDS011;1685;53.104;8.228;2022-07-09T05:33:02;30.33;;;15.10;;
3343;SDS011;1685;53.104;8.228;2022-07-09T05:35:28;29.67;;;14.90;;
3343;SDS011;1685;53.104;8.228;2022-07-09T05:37:55;29.80;;;15.60;;
3343;SDS011;1685;53.104;8.228;2022-07-09T05:40:24;26.00;;;13.67;;
3343;SDS011;1685;53.104;8.228;2022-07-09T05:42:51;21.27;;;15.07;;
3343;SDS011;1685;53.104;8.228;2022-07-09T05:45:17;22.80;;;13.63;;
3343;SDS011;1685;53.104;8.228;2022-07-09T05:47:44;19.30;;;13.30;;
3343;SDS011;1685;53.104;8.228;2022-07-09T05:50:11;26.40;;;13.73;;
3343;SDS011;1685;53.104;8.228;2022-07-09T05:52:38;21.93;;;13.50;;
3343;SDS011;1685;53.104;8.228;2022-07-09T05:55:06;21.13;;;13.73;;
3343;SDS011;1685;53.104;8.228;2022-07-09T05:57:34;19.53;;;12.20;;
3343;SDS011;1685;53.104;8.228;2022-07-09T06:00:01;20.63;;;12.70;;
3343;SDS011;1685;53.104;8.228;2022-07-09T06:02:29;23.43;;;12.17;;
3343;SDS011;1685;53.104;8.228;2022-07-09T06:04:56;23.30;;;12.40;;
3343;SDS011;1685;53.104;8.228;2022-07-09T06:07:23;19.70;;;12.27;;
3343;SDS011;1685;53.104;8.228;2022-07-09T06:09:51;17.67;;;11.90;;
3343;SDS011;1685;53.104;8.228;2022-07-09T06:12:18;19.07;;;12.20;;
3343;SDS011;1685;53.104;8.228;2022-07-09T06:14:46;25.20;;;11.13;;
3343;SDS011;1685;53.104;8.228;2022-07-09T06:17:13;18.13;;;11.30;;
3343;SDS011;1685;53.104;8.228;2022-07-09T06:19:40;26.20;;;11.50;;
3343;SDS011;1685;53.104;8.228;2022-07-09T06:22:07;16.80;;;10.27;;
3343;SDS011;1685;53.104;8.228;2022-07-09T06:24:34;22.70;;;11.40;;
3343;SDS011;1685;53.104;8.228;2022-07-09T06:27:01;11.63;;;8.00;;
3343;SDS011;1685;53.104;8.228;2022-07-09T06:29:28;21.70;;;9.50;;
3343;SDS011;1685;53.104;8.228;2022-07-09T06:31:56;12.17;;;8.17;;
3343;SDS011;1685;53.104;8.228;2022-07-09T06:34:25;15.50;;;9.03;;
3343;SDS011;1685;53.104;8.228;2022-07-09T06:36:52;15.13;;;8.77;;
3343;SDS011;1685;53.104;8.228;2022-07-09T06:39:19;19.53;;;8.13;;
3343;SDS011;1685;53.104;8.228;2022-07-09T06:42:05;14.60;;;8.47;;
3343;SDS011;1685;53.104;8.228;2022-07-09T06:44:32;13.73;;;8.60;;
3343;SDS011;1685;53.104;8.228;2022-07-09T06:47:00;11.50;;;8.47;;
3343;SDS011;1685;53.104;8.228;2022-07-09T06:49:27;13.37;;;7.87;;
3343;SDS011;1685;53.104;8.228;2022-07-09T06:51:54;10.40;;;7.23;;
3343;SDS011;1685;53.104;8.228;2022-07-09T06:54:22;10.90;;;8.13;;
3343;SDS011;1685;53.104;8.228;2022-07-09T06:56:49;11.17;;;7.60;;
3343;SDS011;1685;53.104;8.228;2022-07-09T06:59:16;13.30;;;8.73;;
3343;SDS011;1685;53.104;8.228;2022-07-09T07:01:44;11.23;;;7.63;;
3343;SDS011;1685;53.104;8.228;2022-07-09T07:04:12;15.30;;;7.97;;
3343;SDS011;1685;53.104;8.228;2022-07-09T07:06:39;9.80;;;7.07;;
3343;SDS011;1685;53.104;8.228;2022-07-09T07:09:07;9.57;;;6.87;;
3343;SDS011;1685;53.104;8.228;2022-07-09T07:11:34;11.87;;;6.40;;
3343;SDS011;1685;53.104;8.228;2022-07-09T07:14:01;11.80;;;6.80;;
3343;SDS011;1685;53.104;8.228;2022-07-09T07:16:28;11.20;;;7.03;;
3343;SDS011;1685;53.104;8.228;2022-07-09T07:18:55;7.93;;;6.10;;
3343;SDS011;1685;53.104;8.228;2022-07-09T07:21:23;10.57;;;7.37;;
3343;SDS011;1685;53.104;8.228;2022-07-09T07:23:50;7.77;;;6.20;;
3343;SDS011;1685;53.104;8.228;2022-07-09T07:26:17;10.20;;;6.10;;
3343;SDS011;1685;53.104;8.228;2022-07-09T07:28:44;8.80;;;6.80;;
3343;SDS011;1685;53.104;8.228;2022-07-09T07:31:11;7.93;;;6.17;;
3343;SDS011;1685;53.104;8.228;2022-07-09T07:33:38;9.10;;;5.43;;
3343;SDS011;1685;53.104;8.228;2022-07-09T07:36:05;11.40;;;5.60;;
3343;SDS011;1685;53.104;8.228;2022-07-09T07:38:34;8.37;;;5.80;;
3343;SDS011;1685;53.104;8.228;2022-07-09T07:41:01;11.40;;;5.40;;
3343;SDS011;1685;53.104;8.228;2022-07-09T07:43:28;9.13;;;5.20;;
3343;SDS011;1685;53.104;8.228;2022-07-09T07:45:55;13.10;;;5.53;;
3343;SDS011;1685;53.104;8.228;2022-07-09T07:48:22;6.13;;;4.80;;
3343;SDS011;1685;53.104;8.228;2022-07-09T07:50:52;7.33;;;4.67;;
3343;SDS011;1685;53.104;8.228;2022-07-09T07:53:19;5.50;;;4.30;;
3343;SDS011;1685;53.104;8.228;2022-07-09T07:55:47;11.77;;;5.40;;
3343;SDS011;1685;53.104;8.228;2022-07-09T07:58:14;5.93;;;4.70;;
3343;SDS011;1685;53.104;8.228;2022-07-09T08:00:41;8.03;;;4.20;;
3343;SDS011;1685;53.104;8.228;2022-07-09T08:03:08;10.53;;;4.50;;
3343;SDS011;1685;53.104;8.228;2022-07-09T08:05:35;5.00;;;4.30;;
3343;SDS011;1685;53.104;8.228;2022-07-09T08:08:03;5.53;;;3.90;;
3343;SDS011;1685;53.104;8.228;2022-07-09T08:10:30;3.73;;;3.40;;
3343;SDS011;1685;53.104;8.228;2022-07-09T08:12:58;4.80;;;3.63;;
3343;SDS011;1685;53.104;8.228;2022-07-09T08:15:25;11.67;;;3.90;;
3343;SDS011;1685;53.104;8.228;2022-07-09T08:17:52;4.83;;;3.83;;
3343;SDS011;1685;53.104;8.228;2022-07-09T08:20:19;13.73;;;3.67;;
3343;SDS011;1685;53.104;8.228;2022-07-09T08:22:46;6.60;;;3.17;;
3343;SDS011;1685;53.104;8.228;2022-07-09T08:25:13;4.07;;;3.70;;
3343;SDS011;1685;53.104;8.228;2022-07-09T08:27:40;6.30;;;3.77;;
3343;SDS011;1685;53.104;8.228;2022-07-09T08:30:09;4.10;;;3.10;;
3343;SDS011;1685;53.104;8.228;2022-07-09T08:32:35;5.27;;;2.97;;
3343;SDS011;1685;53.104;8.228;2022-07-09T08:35:03;4.63;;;2.90;;
3343;SDS011;1685;53.104;8.228;2022-07-09T08:37:31;3.93;;;2.77;;
3343;SDS011;1685;53.104;8.228;2022-07-09T08:39:58;10.17;;;3.00;;
3343;SDS011;1685;53.104;8.228;2022-07-09T08:42:26;7.47;;;2.50;;
3343;SDS011;1685;53.104;8.228;2022-07-09T08:44:53;3.43;;;2.53;;
3343;SDS011;1685;53.104;8.228;2022-07-09T08:47:22;2.83;;;2.10;;
3343;SDS011;1685;53.104;8.228;2022-07-09T08:49:50;9.47;;;1.90;;
3343;SDS011;1685;53.104;8.228;2022-07-09T08:52:23;2.20;;;2.10;;
3343;SDS011;1685;53.104;8.228;2022-07-09T08:54:51;1.73;;;1.63;;
3343;SDS011;1685;53.104;8.228;2022-07-09T08:57:18;5.03;;;2.20;;
3343;SDS011;1685;53.104;8.228;2022-07-09T08:59:45;2.73;;;1.80;;
3343;SDS011;1685;53.104;8.228;2022-07-09T09:02:12;5.53;;;1.60;;
3343;SDS011;1685;53.104;8.228;2022-07-09T09:04:41;2.13;;;1.93;;
3343;SDS011;1685;53.104;8.228;2022-07-09T09:07:11;2.43;;;1.57;;
3343;SDS011;1685;53.104;8.228;2022-07-09T09:09:39;1.63;;;1.53;;
3343;SDS011;1685;53.104;8.228;2022-07-09T09:12:07;2.90;;;2.20;;
3343;SDS011;1685;53.104;8.228;2022-07-09T09:14:34;6.63;;;2.20;;
3343;SDS011;1685;53.104;8.228;2022-07-09T09:17:04;2.23;;;2.03;;
3343;SDS011;1685;53.104;8.228;2022-07-09T09:19:34;3.37;;;2.03;;
3343;SDS011;1685;53.104;8.228;2022-07-09T09:22:02;3.63;;;1.87;;
3343;SDS011;1685;53.104;8.228;2022-07-09T09:24:29;2.93;;;1.77;;
3343;SDS011;1685;53.104;8.228;2022-07-09T09:26:57;2.83;;;1.57;;
3343;SDS011;1685;53.104;8.228;2022-07-09T09:29:24;2.60;;;1.70;;
3343;SDS011;1685;53.104;8.228;2022-07-09T09:31:52;4.83;;;1.63;;
3343;SDS011;1685;53.104;8.228;2022-07-09T09:34:19;1.60;;;1.50;;
3343;SDS011;1685;53.104;8.228;2022-07-09T09:36:47;2.47;;;1.63;;
3343;SDS011;1685;53.104;8.228;2022-07-09T09:39:17;2.07;;;1.80;;
3343;SDS011;1685;53.104;8.228;2022-07-09T09:41:46;2.63;;;1.60;;
3343;SDS011;1685;53.104;8.228;2022-07-09T09:44:14;2.70;;;1.73;;
3343;SDS011;1685;53.104;8.228;2022-07-09T09:46:42;3.13;;;1.87;;
3343;SDS011;1685;53.104;8.228;2022-07-09T09:49:10;8.83;;;1.47;;
3343;SDS011;1685;53.104;8.228;2022-07-09T09:51:42;3.43;;;1.87;;
3343;SDS011;1685;53.104;8.228;2022-07-09T09:54:13;1.80;;;1.70;;
3343;SDS011;1685;53.104;8.228;2022-07-09T09:56:42;4.03;;;1.83;;
3343;SDS011;1685;53.104;8.228;2022-07-09T09:59:09;4.87;;;1.80;;
3343;SDS011;1685;53.104;8.228;2022-07-09T10:01:37;4.83;;;2.03;;
3343;SDS011;1685;53.104;8.228;2022-07-09T10:04:04;7.13;;;1.60;;
3343;SDS011;1685;53.104;8.228;2022-07-09T10:06:32;2.53;;;1.60;;
3343;SDS011;1685;53.104;8.228;2022-07-09T10:09:00;2.47;;;1.30;;
3343;SDS011;1685;53.104;8.228;2022-07-09T10:11:37;2.87;;;1.60;;
3343;SDS011;1685;53.104;8.228;2022-07-09T10:14:06;4.80;;;1.90;;
3343;SDS011;1685;53.104;8.228;2022-07-09T10:16:33;2.77;;;1.23;;
3343;SDS011;1685;53.104;8.228;2022-07-09T10:19:01;2.30;;;1.30;;
3343;SDS011;1685;53.104;8.228;2022-07-09T10:21:32;5.00;;;1.20;;
3343;SDS011;1685;53.104;8.228;2022-07-09T10:24:03;4.13;;;1.53;;
3343;SDS011;1685;53.104;8.228;2022-07-09T10:26:34;1.93;;;1.27;;
3343;SDS011;1685;53.104;8.228;2022-07-09T10:29:03;6.27;;;1.67;;
3343;SDS011;1685;53.104;8.228;2022-07-09T10:31:32;1.80;;;1.13;;
3343;SDS011;1685;53.104;8.228;2022-07-09T10:34:00;6.10;;;1.30;;
3343;SDS011;1685;53.104;8.228;2022-07-09T10:36:33;1.80;;;1.47;;
3343;SDS011;1685;53.104;8.228;2022-07-09T10:39:00;1.90;;;1.40;;
3343;SDS011;1685;53.104;8.228;2022-07-09T10:41:28;3.47;;;1.50;;
3343;SDS011;1685;53.104;8.228;2022-07-09T10:43:55;5.80;;;1.50;;
3343;SDS011;1685;53.104;8.228;2022-07-09T10:46:22;1.83;;;1.40;;
3343;SDS011;1685;53.104;8.228;2022-07-09T10:48:50;2.47;;;1.33;;
3343;SDS011;1685;53.104;8.228;2022-07-09T10:51:17;3.17;;;1.37;;
3343;SDS011;1685;53.104;8.228;2022-07-09T10:53:45;0.90;;;0.90;;
3343;SDS011;1685;53.104;8.228;2022-07-09T10:56:15;1.67;;;1.30;;
3343;SDS011;1685;53.104;8.228;2022-07-09T10:58:45;4.20;;;1.73;;
3343;SDS011;1685;53.104;8.228;2022-07-09T11:01:18;1.27;;;1.17;;
3343;SDS011;1685;53.104;8.228;2022-07-09T11:03:46;3.23;;;1.20;;
3343;SDS011;1685;53.104;8.228;2022-07-09T11:06:16;1.57;;;1.10;;
3343;SDS011;1685;53.104;8.228;2022-07-09T11:08:43;2.20;;;1.40;;
3343;SDS011;1685;53.104;8.228;2022-07-09T11:11:10;1.50;;;1.40;;
3343;SDS011;1685;53.104;8.228;2022-07-09T11:13:37;4.23;;;1.67;;
3343;SDS011;1685;53.104;8.228;2022-07-09T11:16:04;2.30;;;0.97;;
3343;SDS011;1685;53.104;8.228;2022-07-09T11:18:31;1.77;;;1.40;;
3343;SDS011;1685;53.104;8.228;2022-07-09T11:20:58;6.83;;;2.10;;
3343;SDS011;1685;53.104;8.228;2022-07-09T11:23:27;15.73;;;3.27;;
3343;SDS011;1685;53.104;8.228;2022-07-09T11:25:53;7.90;;;2.13;;
3343;SDS011;1685;53.104;8.228;2022-07-09T11:28:22;4.47;;;1.90;;
3343;SDS011;1685;53.104;8.228;2022-07-09T11:30:59;3.67;;;2.30;;
3343;SDS011;1685;53.104;8.228;2022-07-09T11:33:26;3.80;;;2.37;;
3343;SDS011;1685;53.104;8.228;2022-07-09T11:36:14;3.00;;;2.30;;
3343;SDS011;1685;53.104;8.228;2022-07-09T11:38:47;3.97;;;2.20;;
3343;SDS011;1685;53.104;8.228;2022-07-09T11:41:14;2.67;;;2.20;;
3343;SDS011;1685;53.104;8.228;2022-07-09T11:43:45;5.17;;;2.60;;
3343;SDS011;1685;53.104;8.228;2022-07-09T11:46:15;2.53;;;2.10;;
3343;SDS011;1685;53.104;8.228;2022-07-09T11:48:47;2.60;;;2.20;;
3343;SDS011;1685;53.104;8.228;2022-07-09T11:51:25;4.20;;;2.10;;
3343;SDS011;1685;53.104;8.228;2022-07-09T11:53:54;6.37;;;2.20;;
3343;SDS011;1685;53.104;8.228;2022-07-09T11:56:21;2.73;;;2.07;;
3343;SDS011;1685;53.104;8.228;2022-07-09T11:58:48;4.90;;;2.13;;
3343;SDS011;1685;53.104;8.228;2022-07-09T12:01:15;5.03;;;2.20;;
3343;SDS011;1685;53.104;8.228;2022-07-09T12:03:46;3.43;;;2.20;;
3343;SDS011;1685;53.104;8.228;2022-07-09T12:06:13;3.33;;;2.27;;
3343;SDS011;1685;53.104;8.228;2022-07-09T12:08:40;2.40;;;1.90;;
3343;SDS011;1685;53.104;8.228;2022-07-09T12:11:09;8.30;;;2.30;;
3343;SDS011;1685;53.104;8.228;2022-07-09T12:13:36;7.00;;;2.60;;
3343;SDS011;1685;53.104;8.228;2022-07-09T12:16:03;6.80;;;2.37;;
3343;SDS011;1685;53.104;8.228;2022-07-09T12:18:30;4.40;;;2.13;;
3343;SDS011;1685;53.104;8.228;2022-07-09T12:20:57;9.17;;;2.20;;
3343;SDS011;1685;53.104;8.228;2022-07-09T12:23:24;2.53;;;2.00;;
3343;SDS011;1685;53.104;8.228;2022-07-09T12:25:52;6.50;;;2.30;;
3343;SDS011;1685;53.104;8.228;2022-07-09T12:28:20;4.40;;;2.17;;
3343;SDS011;1685;53.104;8.228;2022-07-09T12:30:47;5.17;;;2.70;;
3343;SDS011;1685;53.104;8.228;2022-07-09T12:33:14;4.83;;;2.43;;
3343;SDS011;1685;53.104;8.228;2022-07-09T12:35:41;8.47;;;2.50;;
3343;SDS011;1685;53.104;8.228;2022-07-09T12:38:08;4.33;;;2.00;;
3343;SDS011;1685;53.104;8.228;2022-07-09T12:40:35;12.70;;;2.30;;
3343;SDS011;1685;53.104;8.228;2022-07-09T12:43:02;5.20;;;1.97;;
3343;SDS011;1685;53.104;8.228;2022-07-09T12:45:31;7.30;;;2.30;;
3343;SDS011;1685;53.104;8.228;2022-07-09T12:47:58;5.57;;;2.43;;
3343;SDS011;1685;53.104;8.228;2022-07-09T12:50:25;7.70;;;2.23;;
3343;SDS011;1685;53.104;8.228;2022-07-09T12:52:52;11.10;;;2.17;;
3343;SDS011;1685;53.104;8.228;2022-07-09T12:55:19;8.23;;;2.47;;
3343;SDS011;1685;53.104;8.228;2022-07-09T12:57:46;5.27;;;2.20;;
3343;SDS011;1685;53.104;8.228;2022-07-09T13:00:13;11.43;;;3.53;;
3343;SDS011;1685;53.104;8.228;2022-07-09T13:02:42;7.60;;;2.93;;
3343;SDS011;1685;53.104;8.228;2022-07-09T13:05:08;4.90;;;2.53;;
3343;SDS011;1685;53.104;8.228;2022-07-09T13:07:39;6.83;;;3.23;;
3343;SDS011;1685;53.104;8.228;2022-07-09T13:10:06;6.10;;;2.47;;
3343;SDS011;1685;53.104;8.228;2022-07-09T13:12:34;5.57;;;3.33;;
3343;SDS011;1685;53.104;8.228;2022-07-09T13:15:01;6.87;;;1.83;;
3343;SDS011;1685;53.104;8.228;2022-07-09T13:17:28;4.43;;;1.53;;
3343;SDS011;1685;53.104;8.228;2022-07-09T13:19:57;8.13;;;1.90;;
3343;SDS011;1685;53.104;8.228;2022-07-09T13:22:23;5.23;;;1.73;;
3343;SDS011;1685;53.104;8.228;2022-07-09T13:24:50;4.33;;;1.30;;
3343;SDS011;1685;53.104;8.228;2022-07-09T13:27:17;8.40;;;1.60;;
3343;SDS011;1685;53.104;8.228;2022-07-09T13:29:44;3.23;;;1.60;;
3343;SDS011;1685;53.104;8.228;2022-07-09T13:32:12;15.77;;;1.93;;
3343;SDS011;1685;53.104;8.228;2022-07-09T13:34:39;6.27;;;1.60;;
3343;SDS011;1685;53.104;8.228;2022-07-09T13:37:07;7.97;;;1.93;;
3343;SDS011;1685;53.104;8.228;2022-07-09T13:39:34;1.43;;;1.20;;
3343;SDS011;1685;53.104;8.228;2022-07-09T13:42:02;2.43;;;1.20;;
3343;SDS011;1685;53.104;8.228;2022-07-09T13:44:29;7.00;;;1.53;;
3343;SDS011;1685;53.104;8.228;2022-07-09T13:46:57;1.53;;;1.20;;
3343;SDS011;1685;53.104;8.228;2022-07-09T13:49:24;2.20;;;1.57;;
3343;SDS011;1685;53.104;8.228;2022-07-09T13:51:51;10.50;;;1.60;;
3343;SDS011;1685;53.104;8.228;2022-07-09T13:54:19;3.20;;;1.30;;
3343;SDS011;1685;53.104;8.228;2022-07-09T13:56:46;6.30;;;1.10;;
3343;SDS011;1685;53.104;8.228;2022-07-09T13:59:13;2.03;;;1.30;;
3343;SDS011;1685;53.104;8.228;2022-07-09T14:01:40;5.10;;;1.40;;
3343;SDS011;1685;53.104;8.228;2022-07-09T14:04:07;3.63;;;1.47;;
3343;SDS011;1685;53.104;8.228;2022-07-09T14:06:34;4.53;;;1.20;;
3343;SDS011;1685;53.104;8.228;2022-07-09T14:09:02;3.23;;;1.70;;
3343;SDS011;1685;53.104;8.228;2022-07-09T14:11:30;1.60;;;1.20;;
3343;SDS011;1685;53.104;8.228;2022-07-09T14:13:57;6.47;;;1.50;;
3343;SDS011;1685;53.104;8.228;2022-07-09T14:16:25;3.07;;;1.53;;
3343;SDS011;1685;53.104;8.228;2022-07-09T14:18:52;1.90;;;1.37;;
3343;SDS011;1685;53.104;8.228;2022-07-09T14:21:20;4.70;;;1.30;;
3343;SDS011;1685;53.104;8.228;2022-07-09T14:23:47;2.27;;;1.00;;
3343;SDS011;1685;53.104;8.228;2022-07-09T14:26:14;6.33;;;1.30;;
3343;SDS011;1685;53.104;8.228;2022-07-09T14:28:43;4.20;;;1.20;;
3343;SDS011;1685;53.104;8.228;2022-07-09T14:31:10;2.77;;;1.10;;
3343;SDS011;1685;53.104;8.228;2022-07-09T14:33:37;3.73;;;1.47;;
3343;SDS011;1685;53.104;8.228;2022-07-09T14:36:04;5.43;;;1.30;;
3343;SDS011;1685;53.104;8.228;2022-07-09T14:38:31;1.40;;;1.10;;
3343;SDS011;1685;53.104;8.228;2022-07-09T14:40:58;7.50;;;1.30;;
3343;SDS011;1685;53.104;8.228;2022-07-09T14:43:25;6.20;;;1.53;;
3343;SDS011;1685;53.104;8.228;2022-07-09T14:45:54;1.90;;;1.40;;
3343;SDS011;1685;53.104;8.228;2022-07-09T14:48:21;2.30;;;1.10;;
3343;SDS011;1685;53.104;8.228;2022-07-09T14:50:48;4.33;;;1.63;;
3343;SDS011;1685;53.104;8.228;2022-07-09T14:53:15;3.47;;;2.00;;
3343;SDS011;1685;53.104;8.228;2022-07-09T14:55:42;4.17;;;1.33;;
3343;SDS011;1685;53.104;8.228;2022-07-09T14:58:09;4.60;;;1.40;;
3343;SDS011;1685;53.104;8.228;2022-07-09T15:00:37;1.93;;;1.20;;
3343;SDS011;1685;53.104;8.228;2022-07-09T15:03:05;2.63;;;1.27;;
3343;SDS011;1685;53.104;8.228;2022-07-09T15:05:32;3.17;;;1.53;;
3343;SDS011;1685;53.104;8.228;2022-07-09T15:07:59;4.37;;;1.80;;